Oakfield, WI

11:45 PM CDT on April 24, 2015 (GMT -0500)
KWIOAKFI2 | | Change Station
CLOSE
Current Station
Personal Weather Station
Location: Oakfield, WI
Elevation: 912 ft
Nearby Weather Stations

Elev 912 ft 43.67 °N, 88.62 °W | Updated 2 seconds ago

Overcast
Overcast
37.4 °F
Feels Like 30 °F
N
10.0
Wind Variable Wind from ENE
Gusts 11.0 mph

Today
High -- | Low -- °F
--% Chance of Precip.
Yesterday
High -- | Low -- °F
Precip. -- in
5:57 AM 7:48 PM
Waxing Crescent, 42% visible
Pressure 29.99 in
Visibility 10.0 miles
Clouds Scattered Clouds 3500 ft
Mostly Cloudy 4300 ft
Overcast 5000 ft
Windchill 30 °F
Dew Point 35 °F
Humidity 92%
Rainfall 0.07 in
Snow Depth Not available.
UV 0 out of 12
Pollen 9.20 out of 12
Air Quality Not available.
Flu Activity Local Activity
METAR KFLD 250353Z AUTO 08008KT 10SM -RA SCT035 BKN043 OVC050 03/01 A2998 RMK AO2 SLP156 P0001 T00330006

More Conditions Fewer Conditions

Pressure 29.99 in
Visibility 10.0 miles
Clouds Scattered Clouds 3500 ft
Mostly Cloudy 4300 ft
Overcast 5000 ft
Windchill 30 °F
Dew Point 35 °F
Humidity 92%
Rainfall 0.07 in
Snow Depth Not available.
UV 0 out of 12
Pollen 9.20 out of 12
Air Quality Not available.
Flu Activity Local Activity
METAR KFLD 250353Z AUTO 08008KT 10SM -RA SCT035 BKN043 OVC050 03/01 A2998 RMK AO2 SLP156 P0001 T00330006

More Conditions Fewer Conditions

10-Day Weather Forecast

Almanac

Astronomy

Apr. 24, 2015 Rise Set
Actual Time
Civil Twilight
Nautical Twilight
Astronomical Twilight
Moon
Length of Visible Light
Length of Day
Tomorrow will be .
, % of the Moon is Illuminated

Today's Extremes

State Highs State Lows

Community

WunderPhotos

Upload Photos

1,816,605 photos uploaded!

WunderBlogs® & News

Nearby

Air Quality

  Air Quality AQ Index Pollutant
Not available.

Snow Depth

Station Depth Elevation

Earthquake Activity

City Distance Mag. Time & Date
Minimum magnitude displayed is 2.5.

Coastal Water Temperatures

Place Temperature

Stations

Nearby Weather Stations

Station Location Temp. Windchill Dew Point Humidity Wind Precip. Elev Updated Type